Time;durP1;ratioP1;P1;durP2;ratioP2;P2;SDS_P1;SDS_P2;PMS_P1;PMS_P2;Temp;Humidity;BMP_temperature;BMP_pressure;BME280_temperature;BME280_humidity;BME280_pressure;Samples;Min_cycle;Max_cycle;Signal;HPM_P1;HPM_P2
2023/06/13 00:01:48;;;;;;;348.27;332.63;;;16.30;80.90;;;;;;5044835;28;20119;-78
2023/06/13 00:04:21;;;;;;;352.02;335.40;;;16.30;81.10;;;;;;5029015;28;20060;-77
2023/06/13 00:06:54;;;;;;;352.63;335.73;;;16.30;81.30;;;;;;5060256;28;20122;-78
2023/06/13 00:09:20;;;;;;;323.80;308.90;;;16.40;81.60;;;;;;5054919;28;20042;-77
2023/06/13 00:11:49;;;;;;;344.58;326.95;;;16.40;81.60;;;;;;5026656;28;20033;-78
2023/06/13 00:14:16;;;;;;;328.02;312.73;;;16.40;82.20;;;;;;5043375;28;20037;-78
2023/06/13 00:16:43;;;;;;;286.20;273.30;;;16.40;82.40;;;;;;5039587;28;20044;-78
2023/06/13 00:19:10;;;;;;;293.20;279.77;;;16.40;82.70;;;;;;5050949;28;20042;-78
2023/06/13 00:21:38;;;;;;;258.02;246.43;;;16.40;83.60;;;;;;5029298;28;20045;-78
2023/06/13 00:24:04;;;;;;;207.30;197.93;;;16.40;83.50;;;;;;5028233;28;20048;-78
2023/06/13 00:26:30;;;;;;;189.75;181.18;;;16.40;83.40;;;;;;5056224;28;20041;-78
2023/06/13 00:28:55;;;;;;;205.90;196.85;;;16.40;84.10;;;;;;5029135;28;20560;-78
2023/06/13 00:31:21;;;;;;;188.60;180.27;;;16.40;84.10;;;;;;5027658;28;20037;-77
2023/06/13 00:33:50;;;;;;;132.85;126.80;;;16.40;84.40;;;;;;5030936;28;20036;-77
2023/06/13 00:36:20;;;;;;;136.25;130.10;;;16.30;84.90;;;;;;5040939;28;20044;-78
2023/06/13 00:38:48;;;;;;;125.47;119.63;;;16.30;85.10;;;;;;5014840;28;20533;-78
2023/06/13 00:41:14;;;;;;;103.03;98.40;;;16.30;85.80;;;;;;5043731;28;20602;-76
2023/06/13 00:43:40;;;;;;;130.25;123.95;;;16.20;86.00;;;;;;5038636;28;20058;-77
2023/06/13 00:46:05;;;;;;;117.55;112.32;;;16.30;87.60;;;;;;5036905;28;20049;-77
2023/06/13 00:48:33;;;;;;;97.75;93.32;;;16.20;86.80;;;;;;5040539;28;20412;-77
2023/06/13 00:51:01;;;;;;;98.43;93.90;;;16.20;87.20;;;;;;5014700;28;20048;-78
2023/06/13 00:53:29;;;;;;;133.63;127.53;;;16.20;87.40;;;;;;5028989;28;20103;-78
2023/06/13 00:55:56;;;;;;;94.50;90.10;;;16.10;87.80;;;;;;5057455;28;20074;-77
2023/06/13 00:58:22;;;;;;;115.82;110.57;;;16.10;88.40;;;;;;5042324;28;20037;-77
2023/06/13 01:00:49;;;;;;;97.75;93.30;;;16.00;88.90;;;;;;5040779;28;20072;-78
2023/06/13 01:03:15;;;;;;;93.78;89.35;;;16.00;89.80;;;;;;5046614;28;20057;-78
2023/06/13 01:05:42;;;;;;;118.80;113.35;;;16.00;90.00;;;;;;5022735;28;20080;-77
2023/06/13 01:08:21;;;;;;;90.50;86.28;;;15.90;90.50;;;;;;5027380;28;20123;-78
2023/06/13 01:11:04;;;;;;;93.22;88.90;;;15.90;90.70;;;;;;5043418;28;20041;-78
2023/06/13 01:13:43;;;;;;;94.35;89.75;;;15.70;90.70;;;;;;5033493;28;20512;-77
2023/06/13 01:16:28;;;;;;;97.38;92.82;;;15.70;90.90;;;;;;5027642;28;20037;-78
2023/06/13 01:18:58;;;;;;;96.13;91.70;;;15.70;91.10;;;;;;5061677;28;20053;-77
2023/06/13 01:21:26;;;;;;;103.07;97.82;;;15.60;91.40;;;;;;5036137;28;20041;-77
2023/06/13 01:24:02;;;;;;;110.10;104.72;;;15.60;92.10;;;;;;5042540;28;20485;-78
2023/06/13 01:26:50;;;;;;;94.05;89.07;;;15.60;92.20;;;;;;5040388;28;20072;-77
2023/06/13 01:29:17;;;;;;;111.65;106.40;;;15.50;92.70;;;;;;5037557;28;20409;-77
2023/06/13 01:31:47;;;;;;;81.32;77.45;;;15.50;93.00;;;;;;5019329;28;20045;-77
2023/06/13 01:34:14;;;;;;;82.95;78.93;;;15.50;92.90;;;;;;5044101;28;20447;-77
2023/06/13 01:36:40;;;;;;;83.60;79.65;;;15.40;93.00;;;;;;5035911;28;20041;-78
2023/06/13 01:39:05;;;;;;;73.72;70.13;;;15.40;93.70;;;;;;5058532;28;20553;-76
2023/06/13 01:41:31;;;;;;;78.65;74.85;;;15.40;93.70;;;;;;5026950;28;20044;-77
2023/06/13 01:43:57;;;;;;;83.88;79.68;;;15.40;94.30;;;;;;5024708;28;20037;-78
2023/06/13 01:46:27;;;;;;;84.78;80.70;;;15.40;94.40;;;;;;5033828;28;20630;-78
2023/06/13 01:49:21;;;;;;;85.13;81.22;;;15.30;94.30;;;;;;5041249;28;20053;-78
2023/06/13 01:52:21;;;;;;;89.40;85.22;;;15.30;94.70;;;;;;5041181;28;20093;-78
2023/06/13 01:54:52;;;;;;;83.65;79.85;;;15.30;94.70;;;;;;5037009;28;20124;-77
2023/06/13 01:57:24;;;;;;;106.63;101.63;;;15.20;94.90;;;;;;5025133;28;20128;-78
2023/06/13 01:59:55;;;;;;;96.15;91.85;;;15.20;95.00;;;;;;5028512;28;20083;-78
2023/06/13 02:02:21;;;;;;;108.53;103.45;;;15.20;95.10;;;;;;5043924;28;20049;-77
2023/06/13 02:04:49;;;;;;;105.45;100.60;;;15.10;95.40;;;;;;5036429;28;20131;-78
2023/06/13 02:07:14;;;;;;;110.50;105.60;;;15.10;95.90;;;;;;5025006;28;20044;-78
2023/06/13 02:09:40;;;;;;;125.32;119.57;;;15.10;95.80;;;;;;5029513;28;20045;-77
2023/06/13 02:12:06;;;;;;;120.03;114.38;;;15.10;96.10;;;;;;5041440;28;20522;-77
2023/06/13 02:14:32;;;;;;;132.27;126.35;;;15.00;96.50;;;;;;5038522;28;20197;-77
2023/06/13 02:16:59;;;;;;;148.80;141.90;;;15.00;96.50;;;;;;5043111;28;20123;-77
2023/06/13 02:19:25;;;;;;;116.88;111.32;;;15.00;96.80;;;;;;5038337;28;20519;-76
2023/06/13 02:21:51;;;;;;;216.85;205.88;;;14.90;97.20;;;;;;5020664;28;20052;-77
2023/06/13 02:24:18;;;;;;;252.30;238.90;;;14.90;97.70;;;;;;5029619;28;20496;-77
2023/06/13 02:26:45;;;;;;;249.13;237.07;;;14.80;97.90;;;;;;5025228;28;20362;-77
2023/06/13 02:29:11;;;;;;;402.35;382.10;;;14.70;98.50;;;;;;5046220;28;20106;-77
2023/06/13 02:31:38;;;;;;;398.77;378.20;;;14.60;99.20;;;;;;5023937;28;20036;-77
2023/06/13 02:34:04;;;;;;;442.90;419.92;;;14.40;99.50;;;;;;5026558;28;20041;-77
2023/06/13 02:36:30;;;;;;;379.80;361.20;;;14.30;99.90;;;;;;5038453;28;20029;-77
2023/06/13 02:38:56;;;;;;;437.45;415.42;;;14.20;99.90;;;;;;5039184;28;20141;-78
2023/06/13 02:41:22;;;;;;;523.85;496.40;;;14.00;99.90;;;;;;5040519;28;20098;-78
2023/06/13 02:43:48;;;;;;;556.83;526.65;;;13.90;99.90;;;;;;5045472;28;20183;-77
2023/06/13 02:46:15;;;;;;;462.33;438.73;;;13.80;99.90;;;;;;5045369;28;20048;-78
2023/06/13 02:48:40;;;;;;;394.85;375.20;;;13.70;99.90;;;;;;5043120;28;20484;-77
2023/06/13 02:51:09;;;;;;;400.52;380.58;;;13.70;99.90;;;;;;5029966;28;20098;-78
2023/06/13 02:53:34;;;;;;;337.33;321.05;;;13.60;99.90;;;;;;5031529;28;20033;-77
2023/06/13 02:56:00;;;;;;;342.08;325.23;;;13.50;99.90;;;;;;5037760;28;20040;-77
2023/06/13 02:58:26;;;;;;;224.32;213.95;;;13.50;99.90;;;;;;5018957;28;20094;-78
2023/06/13 03:00:51;;;;;;;194.52;185.63;;;13.50;99.90;;;;;;5045693;28;20041;-78
2023/06/13 03:03:18;;;;;;;192.32;183.65;;;13.50;99.90;;;;;;5032849;28;20458;-77
2023/06/13 03:05:47;;;;;;;257.45;245.43;;;13.50;99.90;;;;;;5076971;28;20833;-77
2023/06/13 03:08:18;;;;;;;237.70;227.40;;;13.50;99.90;;;;;;5044634;28;20040;-77
2023/06/13 03:10:44;;;;;;;255.68;244.88;;;13.50;99.90;;;;;;5044116;28;20556;-78
2023/06/13 03:13:10;;;;;;;276.35;264.63;;;13.50;99.90;;;;;;5022588;28;20481;-78
2023/06/13 03:15:36;;;;;;;355.23;339.58;;;13.50;99.90;;;;;;5045112;28;20123;-78
2023/06/13 03:18:03;;;;;;;344.63;329.67;;;13.50;99.90;;;;;;5040452;28;20136;-77
2023/06/13 03:20:30;;;;;;;358.50;342.63;;;13.50;99.90;;;;;;5046276;28;20057;-78
2023/06/13 03:22:56;;;;;;;294.15;281.27;;;13.50;99.90;;;;;;5040467;28;20044;-78
2023/06/13 03:25:21;;;;;;;333.88;319.38;;;13.60;99.90;;;;;;5064686;28;20052;-77
2023/06/13 03:27:47;;;;;;;321.58;307.75;;;13.60;99.90;;;;;;5071309;28;20044;-77
2023/06/13 03:30:14;;;;;;;263.08;251.43;;;13.60;99.90;;;;;;5028812;28;20045;-78
2023/06/13 03:32:40;;;;;;;284.35;271.98;;;13.60;99.90;;;;;;5027223;28;20037;-77
2023/06/13 03:35:06;;;;;;;266.85;255.52;;;13.60;99.90;;;;;;5055585;28;20474;-77
2023/06/13 03:37:31;;;;;;;233.82;223.73;;;13.60;99.90;;;;;;5057440;28;20044;-77
2023/06/13 03:39:57;;;;;;;223.98;214.23;;;13.60;99.90;;;;;;5020239;28;20044;-78
2023/06/13 03:42:23;;;;;;;175.88;167.80;;;13.60;99.90;;;;;;5031631;28;20170;-78
2023/06/13 03:44:49;;;;;;;159.93;152.48;;;13.70;99.90;;;;;;5041175;28;20041;-78
2023/06/13 03:47:15;;;;;;;138.60;132.38;;;13.70;99.90;;;;;;5027848;28;20041;-78
2023/06/13 03:49:41;;;;;;;159.13;151.93;;;13.70;99.90;;;;;;5040988;28;20117;-78
2023/06/13 03:52:07;;;;;;;143.30;136.75;;;13.80;99.90;;;;;;5045362;28;20044;-77
2023/06/13 03:54:33;;;;;;;149.70;142.82;;;13.80;99.90;;;;;;5028651;28;20493;-78
2023/06/13 03:56:59;;;;;;;116.15;110.88;;;13.80;99.90;;;;;;5032291;28;20045;-78
2023/06/13 03:59:25;;;;;;;112.20;107.25;;;13.80;99.90;;;;;;5039405;28;20055;-78
2023/06/13 04:01:50;;;;;;;105.22;100.25;;;13.90;99.90;;;;;;5025925;28;20061;-78
2023/06/13 04:04:17;;;;;;;105.97;101.20;;;13.90;99.90;;;;;;5041929;28;20065;-79
2023/06/13 04:06:47;;;;;;;106.57;101.53;;;14.00;99.90;;;;;;5068436;28;20060;-77
2023/06/13 04:09:13;;;;;;;112.20;106.88;;;14.00;99.90;;;;;;5037320;28;20045;-77
2023/06/13 04:11:39;;;;;;;113.40;107.88;;;14.10;99.90;;;;;;5049200;28;20037;-78
2023/06/13 04:14:05;;;;;;;118.47;112.90;;;14.10;99.90;;;;;;5022927;28;20416;-78
2023/06/13 04:16:31;;;;;;;103.45;98.68;;;14.20;99.90;;;;;;5044654;28;20048;-78
2023/06/13 04:18:57;;;;;;;101.68;96.78;;;14.20;99.90;;;;;;5043338;28;20477;-78
2023/06/13 04:21:25;;;;;;;107.95;102.85;;;14.30;99.90;;;;;;5041455;28;20044;-78
2023/06/13 04:23:54;;;;;;;107.57;102.65;;;14.40;99.90;;;;;;5021941;28;20393;-78
2023/06/13 04:26:20;;;;;;;141.73;135.25;;;14.40;99.90;;;;;;5049106;28;20052;-78
2023/06/13 04:28:47;;;;;;;95.68;91.00;;;14.40;99.90;;;;;;5036075;28;20053;-79
2023/06/13 04:31:14;;;;;;;94.22;89.85;;;14.50;99.90;;;;;;5045995;28;20048;-79
2023/06/13 04:33:41;;;;;;;78.25;74.30;;;14.50;99.90;;;;;;5030785;28;20040;-79
2023/06/13 04:36:08;;;;;;;90.95;86.65;;;14.60;99.90;;;;;;5040019;28;20091;-80
2023/06/13 04:38:35;;;;;;;69.57;65.97;;;14.70;99.90;;;;;;5042928;28;20044;-79
2023/06/13 04:41:01;;;;;;;75.15;71.47;;;14.70;99.90;;;;;;5045942;28;20048;-79
2023/06/13 04:43:28;;;;;;;90.90;86.72;;;14.70;99.90;;;;;;5026070;28;20566;-79
2023/06/13 04:45:55;;;;;;;70.78;66.97;;;14.90;99.90;;;;;;5033401;28;20042;-79
2023/06/13 04:48:25;;;;;;;75.25;71.53;;;14.90;99.90;;;;;;5041178;28;20072;-78
2023/06/13 04:50:52;;;;;;;106.45;101.53;;;14.90;99.90;;;;;;5042607;28;20107;-78
2023/06/13 04:53:21;;;;;;;80.72;76.85;;;15.00;99.90;;;;;;5030564;28;20069;-79
2023/06/13 04:55:49;;;;;;;93.63;89.32;;;15.10;99.90;;;;;;5072640;28;20394;-79
2023/06/13 04:58:17;;;;;;;195.48;186.70;;;15.20;99.90;;;;;;5030010;28;20389;-77
2023/06/13 05:00:47;;;;;;;97.80;93.28;;;15.20;99.90;;;;;;5037440;28;20049;-79
2023/06/13 05:03:16;;;;;;;82.85;78.38;;;15.40;99.90;;;;;;5041276;28;20053;-78
2023/06/13 05:05:43;;;;;;;201.15;192.55;;;15.50;99.90;;;;;;5047251;28;20432;-78
2023/06/13 05:08:13;;;;;;;164.23;156.77;;;15.60;99.90;;;;;;5030294;28;20040;-78
2023/06/13 05:10:43;;;;;;;130.77;124.88;;;15.70;99.90;;;;;;5041241;28;20044;-77
2023/06/13 05:13:09;;;;;;;141.50;135.38;;;15.80;99.90;;;;;;5032371;28;20077;-79
2023/06/13 05:15:36;;;;;;;184.98;176.93;;;15.90;99.90;;;;;;5066282;28;20477;-77
2023/06/13 05:18:06;;;;;;;171.10;163.85;;;16.00;99.90;;;;;;5064125;28;20448;-78
2023/06/13 05:20:33;;;;;;;150.27;143.65;;;16.10;99.90;;;;;;5069882;28;20045;-79
2023/06/13 05:23:00;;;;;;;155.93;149.27;;;16.20;99.90;;;;;;5027249;28;20040;-77
2023/06/13 05:25:26;;;;;;;90.97;86.88;;;16.30;99.90;;;;;;5036320;28;20041;-79
2023/06/13 05:27:51;;;;;;;75.28;71.80;;;16.30;99.90;;;;;;5020553;28;20106;-77
2023/06/13 05:30:17;;;;;;;120.10;114.72;;;16.40;99.90;;;;;;5035888;28;20123;-76
2023/06/13 05:32:43;;;;;;;117.07;111.78;;;16.50;99.90;;;;;;5047981;28;20068;-77
2023/06/13 05:35:09;;;;;;;136.80;130.75;;;16.60;99.90;;;;;;5067126;28;20127;-77
2023/06/13 05:37:38;;;;;;;55.25;52.50;;;16.60;99.90;;;;;;5028072;28;20560;-78
2023/06/13 05:40:05;;;;;;;118.68;113.45;;;16.70;99.90;;;;;;5016208;28;20041;-78
2023/06/13 05:42:34;;;;;;;75.00;71.50;;;16.80;99.90;;;;;;5039242;28;20144;-78
2023/06/13 05:45:08;;;;;;;34.50;32.28;;;16.90;99.30;;;;;;5034438;28;20063;-77
2023/06/13 05:47:34;;;;;;;58.65;55.72;;;17.00;99.00;;;;;;5059643;28;20673;-79
2023/06/13 05:50:00;;;;;;;29.95;28.00;;;17.10;98.50;;;;;;5025254;28;20045;-78
2023/06/13 05:52:26;;;;;;;38.40;36.30;;;17.30;97.50;;;;;;5041408;28;20040;-79
2023/06/13 05:54:52;;;;;;;39.55;36.90;;;17.40;96.80;;;;;;5042703;28;20052;-77
2023/06/13 05:57:18;;;;;;;32.33;30.50;;;17.50;95.80;;;;;;5042807;28;20094;-79
2023/06/13 05:59:44;;;;;;;40.30;38.15;;;17.70;95.60;;;;;;5036840;28;20045;-79
2023/06/13 06:02:11;;;;;;;31.27;29.42;;;17.70;93.60;;;;;;5047309;28;20045;-78
2023/06/13 06:04:37;;;;;;;35.78;33.75;;;17.90;95.10;;;;;;5029167;28;20080;-79
2023/06/13 06:07:03;;;;;;;44.05;41.75;;;18.00;94.80;;;;;;5051916;28;20425;-82
2023/06/13 06:09:29;;;;;;;44.75;42.45;;;18.10;94.50;;;;;;5038773;28;20037;-79
2023/06/13 06:11:55;;;;;;;51.97;49.30;;;18.40;94.20;;;;;;5040486;28;20496;-80
2023/06/13 06:14:21;;;;;;;35.00;32.92;;;18.50;92.70;;;;;;5029984;28;20036;-80
2023/06/13 06:16:47;;;;;;;61.88;58.85;;;18.70;91.50;;;;;;5047142;28;20045;-78
2023/06/13 06:19:13;;;;;;;192.48;183.90;;;19.10;91.20;;;;;;5023118;28;20463;-79
2023/06/13 06:21:38;;;;;;;67.07;63.95;;;19.90;86.40;;;;;;5034517;28;20037;-81
2023/06/13 06:24:05;;;;;;;35.22;33.22;;;20.60;86.30;;;;;;5065852;28;20136;-80
2023/06/13 06:26:30;;;;;;;115.20;110.07;;;21.50;79.40;;;;;;5025630;28;20392;-80
2023/06/13 06:28:56;;;;;;;80.85;77.03;;;22.60;78.80;;;;;;5038781;28;20040;-79
2023/06/13 06:31:22;;;;;;;154.38;147.65;;;23.60;75.30;;;;;;5039158;28;20077;-78
2023/06/13 06:33:47;;;;;;;151.68;144.93;;;24.30;70.70;;;;;;5025275;28;20679;-79
2023/06/13 06:36:15;;;;;;;134.98;129.00;;;24.90;67.20;;;;;;5036646;28;20041;-80
2023/06/13 06:38:42;;;;;;;77.60;73.97;;;25.40;65.10;;;;;;5067992;28;20575;-79
2023/06/13 06:41:08;;;;;;;83.75;79.75;;;25.80;62.30;;;;;;5039788;28;20082;-78
2023/06/13 06:43:33;;;;;;;31.33;29.02;;;26.10;62.00;;;;;;5021356;28;20139;-80
2023/06/13 06:45:59;;;;;;;37.95;35.67;;;26.60;61.80;;;;;;5037909;28;20046;-80
2023/06/13 06:48:25;;;;;;;21.83;20.52;;;27.30;61.20;;;;;;5040923;28;20362;-80
2023/06/13 06:50:51;;;;;;;21.30;20.00;;;27.70;59.40;;;;;;5029813;28;20386;-79
2023/06/13 06:53:17;;;;;;;22.60;21.17;;;27.90;58.50;;;;;;5019689;28;20162;-80
2023/06/13 06:55:42;;;;;;;43.28;41.08;;;27.80;57.20;;;;;;5040161;28;20506;-81
2023/06/13 06:58:08;;;;;;;62.03;58.83;;;27.70;54.80;;;;;;5040888;28;20404;-79
2023/06/13 07:00:34;;;;;;;66.82;63.35;;;27.50;54.90;;;;;;5050909;28;20045;-80
2023/06/13 07:02:59;;;;;;;41.35;39.20;;;27.70;55.80;;;;;;5039464;28;20067;-79
2023/06/13 07:05:25;;;;;;;90.80;86.80;;;27.80;54.00;;;;;;5020191;28;20187;-79
2023/06/13 07:07:51;;;;;;;45.28;42.97;;;27.70;53.30;;;;;;5022342;28;20502;-80
2023/06/13 07:10:17;;;;;;;70.38;66.85;;;27.80;53.80;;;;;;5034138;28;20045;-78
2023/06/13 07:12:43;;;;;;;132.77;126.72;;;28.10;54.00;;;;;;5028901;28;20060;-80
2023/06/13 07:15:08;;;;;;;48.05;45.58;;;28.20;53.60;;;;;;5029122;28;20052;-78
2023/06/13 07:17:34;;;;;;;97.80;93.38;;;28.50;52.20;;;;;;5039340;28;20048;-79
2023/06/13 07:20:00;;;;;;;11.65;10.52;;;28.50;51.80;;;;;;5060220;28;20068;-79
2023/06/13 07:22:26;;;;;;;26.90;24.90;;;28.40;51.10;;;;;;5038788;28;20192;-78
2023/06/13 07:24:52;;;;;;;54.95;52.20;;;28.30;51.30;;;;;;5038571;28;20056;-79
2023/06/13 07:27:18;;;;;;;101.45;96.90;;;28.50;52.20;;;;;;5035881;28;20041;-80
2023/06/13 07:29:44;;;;;;;10.35;9.45;;;28.80;52.40;;;;;;5018575;28;20049;-80
2023/06/13 07:32:10;;;;;;;10.20;9.30;;;29.10;50.90;;;;;;5029371;28;20040;-80
2023/06/13 07:34:35;;;;;;;38.67;36.53;;;28.80;48.90;;;;;;5045118;28;20592;-79
2023/06/13 07:37:03;;;;;;;10.20;9.35;;;28.80;49.50;;;;;;5053090;28;20042;-79
2023/06/13 07:39:28;;;;;;;10.27;9.38;;;28.70;49.30;;;;;;5044629;28;20086;-80
2023/06/13 07:41:54;;;;;;;32.63;30.83;;;28.80;49.30;;;;;;5036448;28;20045;-81
2023/06/13 07:44:21;;;;;;;32.13;30.42;;;28.70;46.80;;;;;;5030499;28;20114;-83
2023/06/13 07:46:47;;;;;;;23.30;21.88;;;28.40;45.50;;;;;;5067038;28;20041;-81
2023/06/13 07:49:14;;;;;;;29.65;28.08;;;28.40;47.20;;;;;;5038904;28;20151;-82
2023/06/13 07:51:40;;;;;;;16.60;15.50;;;28.70;47.30;;;;;;5024873;28;20044;-82
2023/06/13 07:54:06;;;;;;;28.75;27.23;;;29.10;47.10;;;;;;5044504;28;20045;-82
2023/06/13 07:56:32;;;;;;;33.45;31.65;;;29.10;46.00;;;;;;5039490;28;20083;-81
2023/06/13 07:58:58;;;;;;;36.25;34.35;;;29.10;44.90;;;;;;5040155;28;20048;-80
2023/06/13 08:01:23;;;;;;;27.10;25.60;;;28.90;44.40;;;;;;5030663;28;20037;-80
2023/06/13 08:03:49;;;;;;;35.92;34.03;;;28.80;45.40;;;;;;5047366;28;20048;-80
2023/06/13 08:06:15;;;;;;;37.83;35.63;;;29.00;45.30;;;;;;5068361;28;20537;-82
2023/06/13 08:08:41;;;;;;;39.75;37.30;;;29.00;44.70;;;;;;5042902;28;20032;-80
2023/06/13 08:11:07;;;;;;;18.60;17.20;;;28.90;44.90;;;;;;5039107;28;20040;-81
2023/06/13 08:13:32;;;;;;;11.52;10.63;;;29.00;45.90;;;;;;5021385;28;20037;-82
2023/06/13 08:15:58;;;;;;;23.38;21.70;;;29.00;46.80;;;;;;5019778;28;20049;-80
2023/06/13 08:18:24;;;;;;;17.27;16.17;;;29.10;46.40;;;;;;5036802;28;20529;-80
2023/06/13 08:20:49;;;;;;;45.80;43.42;;;29.40;46.60;;;;;;5013618;28;20405;-81
2023/06/13 08:23:17;;;;;;;44.88;42.70;;;29.10;45.10;;;;;;5038155;28;20047;-80
2023/06/13 08:25:43;;;;;;;17.08;15.85;;;28.80;44.80;;;;;;5035198;28;20554;-81
2023/06/13 08:28:09;;;;;;;28.17;26.67;;;28.40;46.30;;;;;;5039175;28;20138;-80
2023/06/13 08:30:35;;;;;;;17.95;16.75;;;28.40;46.80;;;;;;5031874;28;20045;-80
2023/06/13 08:33:01;;;;;;;18.05;16.75;;;28.60;46.90;;;;;;5021454;28;20082;-81
2023/06/13 08:35:27;;;;;;;40.33;38.33;;;28.80;48.00;;;;;;5042930;28;20048;-80
2023/06/13 08:37:53;;;;;;;41.53;39.15;;;28.90;45.80;;;;;;5022235;28;20049;-80
2023/06/13 08:40:19;;;;;;;27.20;25.63;;;28.60;45.40;;;;;;5057480;28;20051;-81
2023/06/13 08:42:46;;;;;;;39.70;37.65;;;28.60;46.30;;;;;;5041377;28;20049;-81
2023/06/13 08:45:12;;;;;;;45.58;43.08;;;28.80;46.60;;;;;;5052683;28;20052;-81
2023/06/13 08:47:39;;;;;;;38.80;36.85;;;28.90;45.50;;;;;;5039796;28;20036;-80
2023/06/13 08:50:11;;;;;;;68.15;64.90;;;28.80;46.50;;;;;;5028792;28;20037;-81
2023/06/13 08:52:41;;;;;;;36.65;34.83;;;29.00;48.70;;;;;;5029373;28;20037;-82
2023/06/13 08:55:11;;;;;;;26.25;24.67;;;29.10;46.50;;;;;;5036676;28;20109;-81
2023/06/13 08:57:39;;;;;;;41.80;39.60;;;29.00;46.70;;;;;;5048728;28;20686;-82
2023/06/13 09:00:12;;;;;;;34.42;32.60;;;28.80;44.30;;;;;;5034887;28;20404;-80
2023/06/13 09:02:42;;;;;;;30.83;29.15;;;28.60;44.70;;;;;;5047519;28;20104;-81
2023/06/13 09:05:13;;;;;;;35.72;33.72;;;28.60;44.90;;;;;;5046366;28;20056;-81
2023/06/13 09:07:40;;;;;;;24.58;23.23;;;28.40;44.50;;;;;;5039159;28;20051;-83
2023/06/13 09:10:10;;;;;;;36.92;34.88;;;28.30;44.20;;;;;;5070777;28;20041;-80
2023/06/13 09:12:36;;;;;;;25.80;24.23;;;28.30;45.00;;;;;;5049341;28;20274;-80
2023/06/13 09:15:03;;;;;;;31.10;29.35;;;28.30;46.30;;;;;;5034108;28;20807;-82
2023/06/13 09:17:29;;;;;;;16.55;15.25;;;28.60;46.60;;;;;;5040286;28;20246;-80
2023/06/13 09:19:54;;;;;;;39.00;37.05;;;28.80;47.80;;;;;;5034788;28;20041;-82
2023/06/13 09:22:21;;;;;;;42.13;39.88;;;29.00;45.50;;;;;;5044608;28;20505;-81
2023/06/13 09:24:47;;;;;;;22.95;21.45;;;29.00;45.90;;;;;;5038898;28;20052;-81
2023/06/13 09:27:14;;;;;;;46.63;44.13;;;29.00;46.30;;;;;;5022627;28;20037;-81
2023/06/13 09:29:39;;;;;;;21.23;19.95;;;29.10;46.30;;;;;;5040096;28;20040;-78
2023/06/13 09:32:05;;;;;;;30.92;29.20;;;29.30;47.00;;;;;;5043854;28;20041;-84
2023/06/13 09:34:31;;;;;;;14.25;13.05;;;29.20;45.00;;;;;;5037496;28;20049;-81
2023/06/13 09:36:58;;;;;;;26.25;24.58;;;29.10;43.90;;;;;;5042784;28;20493;-83
2023/06/13 09:39:28;;;;;;;33.60;31.65;;;28.90;45.20;;;;;;5027856;28;20338;-81
2023/06/13 09:41:59;;;;;;;34.05;32.22;;;29.00;45.70;;;;;;5026062;28;20052;-82
2023/06/13 09:44:25;;;;;;;46.35;43.97;;;29.00;45.90;;;;;;5033795;28;20033;-82
2023/06/13 09:46:54;;;;;;;48.92;46.55;;;29.20;45.70;;;;;;5018417;28;20049;-81
2023/06/13 09:49:20;;;;;;;14.77;13.68;;;29.50;45.80;;;;;;5041588;28;20487;-80
2023/06/13 09:51:46;;;;;;;12.55;11.55;;;29.40;43.50;;;;;;5035666;28;20091;-80
2023/06/13 09:54:13;;;;;;;33.33;31.42;;;29.00;42.80;;;;;;5069302;28;20049;-81
2023/06/13 09:56:43;;;;;;;37.40;35.30;;;28.80;44.40;;;;;;5016227;28;20474;-82
2023/06/13 09:59:15;;;;;;;17.92;16.65;;;28.60;45.10;;;;;;5022229;28;20447;-80
2023/06/13 10:01:41;;;;;;;28.10;26.30;;;28.60;44.60;;;;;;5012583;28;20072;-80
2023/06/13 10:04:07;;;;;;;30.83;29.17;;;28.60;44.70;;;;;;5033724;28;20111;-81
2023/06/13 10:06:33;;;;;;;22.13;20.77;;;28.70;45.50;;;;;;5025665;28;20049;-80
2023/06/13 10:08:59;;;;;;;27.15;25.58;;;28.60;45.00;;;;;;5038539;28;20102;-80
2023/06/13 10:11:30;;;;;;;42.88;40.78;;;28.80;44.60;;;;;;5046236;28;20048;-82
2023/06/13 10:14:07;;;;;;;20.90;19.67;;;28.80;45.60;;;;;;5011384;28;20037;-82
2023/06/13 10:16:39;;;;;;;10.35;9.38;;;28.90;45.40;;;;;;5030824;28;20045;-82
2023/06/13 10:19:05;;;;;;;29.40;27.73;;;29.00;45.00;;;;;;5028466;28;20052;-82
2023/06/13 10:21:34;;;;;;;11.52;10.48;;;28.90;44.70;;;;;;5063269;28;20055;-78
2023/06/13 10:24:02;;;;;;;16.30;15.18;;;28.80;44.80;;;;;;5022682;28;20033;-80
2023/06/13 10:26:31;;;;;;;17.15;16.05;;;28.80;42.50;;;;;;5006212;28;20142;-79
2023/06/13 10:29:19;;;;;;;15.20;14.10;;;28.60;42.50;;;;;;5028999;28;20052;-82
2023/06/13 10:32:04;;;;;;;13.95;12.88;;;28.40;43.30;;;;;;5059509;28;20114;-81
2023/06/13 10:34:30;;;;;;;;;;;28.40;43.00;;;;;;5030818;28;20440;-78
2023/06/13 10:37:00;;;;;;;11.65;9.95;;;28.20;42.90;;;;;;5024268;28;19924;-77
2023/06/13 10:39:49;;;;;;;20.10;18.90;;;28.10;43.80;;;;;;5037405;28;20072;-80
2023/06/13 10:42:24;;;;;;;17.52;16.23;;;28.00;44.70;;;;;;5041360;28;20158;-78
2023/06/13 10:45:13;;;;;;;29.63;27.73;;;28.00;44.20;;;;;;5035323;28;20531;-79
2023/06/13 10:47:38;;;;;;;26.70;25.25;;;27.90;44.90;;;;;;5054883;28;20042;-77
2023/06/13 10:50:05;;;;;;;19.35;17.95;;;27.70;44.60;;;;;;5012453;28;20491;-77
2023/06/13 10:52:30;;;;;;;23.00;21.48;;;27.60;44.60;;;;;;5034272;28;20037;-78
2023/06/13 10:54:58;;;;;;;35.97;34.15;;;27.60;46.80;;;;;;5033033;28;20052;-78
2023/06/13 10:57:51;;;;;;;29.40;27.75;;;28.00;46.50;;;;;;5039485;28;20049;-77
2023/06/13 11:00:28;;;;;;;17.60;16.50;;;28.10;47.00;;;;;;5039376;28;20342;-76
2023/06/13 11:03:28;;;;;;;36.20;34.33;;;28.10;47.70;;;;;;5024325;28;20045;-78
2023/06/13 11:05:53;;;;;;;32.90;31.00;;;28.20;46.70;;;;;;5014962;28;20131;-77
2023/06/13 11:08:25;;;;;;;25.30;23.67;;;28.20;46.30;;;;;;5033766;28;20036;-82
2023/06/13 11:10:52;;;;;;;35.63;33.78;;;28.10;44.80;;;;;;5049318;28;20037;-79
2023/06/13 11:13:32;;;;;;;27.75;26.15;;;27.90;45.90;;;;;;5039157;28;20083;-77
2023/06/13 11:16:20;;;;;;;31.23;29.23;;;27.90;46.40;;;;;;5034417;28;20053;-77
2023/06/13 11:18:51;;;;;;;28.58;26.85;;;27.70;46.80;;;;;;5036081;28;20406;-76
2023/06/13 11:21:17;;;;;;;21.02;19.27;;;27.60;47.10;;;;;;5033827;28;20407;-78
2023/06/13 11:23:53;;;;;;;12.85;11.85;;;27.70;48.30;;;;;;5033359;28;20547;-77
2023/06/13 11:26:20;;;;;;;15.68;14.57;;;27.70;49.90;;;;;;5042243;28;20044;-78
2023/06/13 11:28:50;;;;;;;42.13;39.67;;;27.90;50.00;;;;;;5034196;28;20414;-78
2023/06/13 11:31:16;;;;;;;13.63;12.63;;;27.90;49.80;;;;;;5034508;28;20115;-78
2023/06/13 11:33:46;;;;;;;15.23;14.25;;;27.90;50.40;;;;;;5031063;28;20135;-77
2023/06/13 11:36:12;;;;;;;11.98;11.07;;;27.70;50.40;;;;;;5034464;28;20167;-78
2023/06/13 11:38:43;;;;;;;17.08;15.93;;;27.60;49.30;;;;;;5026175;28;20124;-78
2023/06/13 11:41:09;;;;;;;37.95;35.75;;;27.60;49.90;;;;;;5047919;28;20041;-77
2023/06/13 11:43:35;;;;;;;17.90;16.63;;;27.70;51.00;;;;;;5047186;28;20779;-82
2023/06/13 11:46:02;;;;;;;19.25;17.90;;;27.80;51.50;;;;;;5034676;28;20111;-78
2023/06/13 11:48:28;;;;;;;83.60;79.38;;;27.90;49.60;;;;;;5026205;28;20116;-78
2023/06/13 11:51:08;;;;;;;12.80;11.68;;;27.80;51.30;;;;;;5023497;28;20128;-80
2023/06/13 11:54:03;;;;;;;21.27;19.83;;;27.90;50.40;;;;;;5038475;28;20032;-79
2023/06/13 11:56:34;;;;;;;39.10;37.13;;;28.00;49.10;;;;;;5041704;28;20523;-78
2023/06/13 11:59:00;;;;;;;22.13;20.80;;;28.10;48.70;;;;;;5023331;28;20051;-78
2023/06/13 12:01:26;;;;;;;46.33;43.80;;;28.00;48.90;;;;;;5039926;28;20501;-78
2023/06/13 12:03:53;;;;;;;43.80;41.50;;;28.00;48.40;;;;;;5068786;28;20065;-78
2023/06/13 12:06:20;;;;;;;45.38;43.15;;;27.90;47.30;;;;;;5022733;28;20122;-77
2023/06/13 12:08:47;;;;;;;49.25;46.75;;;27.80;48.10;;;;;;5035956;28;20311;-78
2023/06/13 12:11:16;;;;;;;44.45;42.08;;;27.90;48.60;;;;;;5042642;28;20135;-80
2023/06/13 12:13:55;;;;;;;47.88;45.45;;;27.80;48.60;;;;;;5040154;28;20033;-78
2023/06/13 12:16:26;;;;;;;44.13;41.75;;;27.90;48.80;;;;;;5040989;28;20144;-79
2023/06/13 12:18:55;;;;;;;26.80;25.05;;;27.90;51.30;;;;;;5037857;28;20029;-78
2023/06/13 12:21:28;;;;;;;38.92;36.92;;;28.00;49.80;;;;;;5044297;28;20036;-77
2023/06/13 12:23:59;;;;;;;34.22;32.15;;;28.00;50.00;;;;;;5030018;28;20037;-78
2023/06/13 12:26:26;;;;;;;31.35;29.73;;;28.10;50.20;;;;;;5036494;28;20481;-78